sensor_id;sensor_type;location;lat;lon;timestamp;temperature;humidity
71514;DHT22;59335;46.652;21.272;2023-03-14T00:01:56;22.78;29.02
71514;DHT22;59335;46.652;21.272;2023-03-14T00:04:59;22.78;29.09
71514;DHT22;59335;46.652;21.272;2023-03-14T00:08:04;22.76;29.04
71514;DHT22;59335;46.652;21.272;2023-03-14T00:11:13;22.76;29.05
71514;DHT22;59335;46.652;21.272;2023-03-14T00:14:16;22.75;28.99
71514;DHT22;59335;46.652;21.272;2023-03-14T00:17:19;22.75;29.01
71514;DHT22;59335;46.652;21.272;2023-03-14T00:20:22;22.76;29.01
71514;DHT22;59335;46.652;21.272;2023-03-14T00:23:27;22.75;28.96
71514;DHT22;59335;46.652;21.272;2023-03-14T00:26:29;22.75;29.05
71514;DHT22;59335;46.652;21.272;2023-03-14T00:29:32;22.75;29.01
71514;DHT22;59335;46.652;21.272;2023-03-14T00:32:36;22.76;28.96
71514;DHT22;59335;46.652;21.272;2023-03-14T00:35:39;22.75;28.98
71514;DHT22;59335;46.652;21.272;2023-03-14T00:38:45;22.76;28.99
71514;DHT22;59335;46.652;21.272;2023-03-14T00:41:48;22.74;29.01
71514;DHT22;59335;46.652;21.272;2023-03-14T00:44:51;22.75;28.92
71514;DHT22;59335;46.652;21.272;2023-03-14T00:47:54;22.78;28.96
71514;DHT22;59335;46.652;21.272;2023-03-14T00:50:56;22.76;28.98
71514;DHT22;59335;46.652;21.272;2023-03-14T00:54:00;22.75;29.01
71514;DHT22;59335;46.652;21.272;2023-03-14T00:57:02;22.76;28.95
71514;DHT22;59335;46.652;21.272;2023-03-14T01:00:06;22.75;28.95
71514;DHT22;59335;46.652;21.272;2023-03-14T01:03:14;22.76;28.95
71514;DHT22;59335;46.652;21.272;2023-03-14T01:06:20;22.75;28.90
71514;DHT22;59335;46.652;21.272;2023-03-14T01:09:23;22.75;28.92
71514;DHT22;59335;46.652;21.272;2023-03-14T01:12:27;22.75;28.92
71514;DHT22;59335;46.652;21.272;2023-03-14T01:15:32;22.76;28.90
71514;DHT22;59335;46.652;21.272;2023-03-14T01:18:35;22.75;28.95
71514;DHT22;59335;46.652;21.272;2023-03-14T01:21:38;22.76;28.95
71514;DHT22;59335;46.652;21.272;2023-03-14T01:24:41;22.75;28.96
71514;DHT22;59335;46.652;21.272;2023-03-14T01:27:44;22.75;28.87
71514;DHT22;59335;46.652;21.272;2023-03-14T01:30:47;22.75;28.92
71514;DHT22;59335;46.652;21.272;2023-03-14T01:33:50;22.75;28.90
71514;DHT22;59335;46.652;21.272;2023-03-14T01:36:53;22.75;28.90
71514;DHT22;59335;46.652;21.272;2023-03-14T01:39:56;22.75;28.87
71514;DHT22;59335;46.652;21.272;2023-03-14T01:43:06;22.74;28.88
71514;DHT22;59335;46.652;21.272;2023-03-14T01:46:44;22.74;28.90
71514;DHT22;59335;46.652;21.272;2023-03-14T01:50:03;22.76;28.87
71514;DHT22;59335;46.652;21.272;2023-03-14T01:53:08;22.76;28.82
71514;DHT22;59335;46.652;21.272;2023-03-14T01:56:13;22.75;28.84
71514;DHT22;59335;46.652;21.272;2023-03-14T01:59:16;22.74;28.85
71514;DHT22;59335;46.652;21.272;2023-03-14T02:02:19;22.74;28.81
71514;DHT22;59335;46.652;21.272;2023-03-14T02:05:28;22.72;28.76
71514;DHT22;59335;46.652;21.272;2023-03-14T02:08:39;22.78;28.79
71514;DHT22;59335;46.652;21.272;2023-03-14T02:11:49;22.76;28.78
71514;DHT22;59335;46.652;21.272;2023-03-14T02:15:16;22.74;28.78
71514;DHT22;59335;46.652;21.272;2023-03-14T02:18:30;22.75;28.73
71514;DHT22;59335;46.652;21.272;2023-03-14T02:22:08;22.74;28.78
71514;DHT22;59335;46.652;21.272;2023-03-14T02:26:00;22.74;28.73
71514;DHT22;59335;46.652;21.272;2023-03-14T02:29:05;22.74;28.76
71514;DHT22;59335;46.652;21.272;2023-03-14T02:32:08;22.74;28.74
71514;DHT22;59335;46.652;21.272;2023-03-14T02:35:17;22.75;28.75
71514;DHT22;59335;46.652;21.272;2023-03-14T02:38:26;22.71;28.70
71514;DHT22;59335;46.652;21.272;2023-03-14T02:41:31;22.74;28.72
71514;DHT22;59335;46.652;21.272;2023-03-14T02:44:55;22.74;28.76
71514;DHT22;59335;46.652;21.272;2023-03-14T02:48:07;22.72;28.70
71514;DHT22;59335;46.652;21.272;2023-03-14T02:51:13;22.72;28.73
71514;DHT22;59335;46.652;21.272;2023-03-14T02:54:20;22.72;28.70
71514;DHT22;59335;46.652;21.272;2023-03-14T02:57:24;22.76;28.76
71514;DHT22;59335;46.652;21.272;2023-03-14T03:00:28;22.74;28.73
71514;DHT22;59335;46.652;21.272;2023-03-14T03:03:33;22.74;28.70
71514;DHT22;59335;46.652;21.272;2023-03-14T03:06:35;22.74;28.72
71514;DHT22;59335;46.652;21.272;2023-03-14T03:09:38;22.75;28.67
71514;DHT22;59335;46.652;21.272;2023-03-14T03:12:41;22.74;28.70
71514;DHT22;59335;46.652;21.272;2023-03-14T03:15:46;22.75;28.67
71514;DHT22;59335;46.652;21.272;2023-03-14T03:18:49;22.75;28.68
71514;DHT22;59335;46.652;21.272;2023-03-14T03:21:51;22.74;28.66
71514;DHT22;59335;46.652;21.272;2023-03-14T03:24:54;22.74;28.70
71514;DHT22;59335;46.652;21.272;2023-03-14T03:27:57;22.72;28.67
71514;DHT22;59335;46.652;21.272;2023-03-14T03:31:06;22.72;28.68
71514;DHT22;59335;46.652;21.272;2023-03-14T03:34:11;22.74;28.67
71514;DHT22;59335;46.652;21.272;2023-03-14T03:37:15;22.74;28.67
71514;DHT22;59335;46.652;21.272;2023-03-14T03:40:21;22.75;28.68
71514;DHT22;59335;46.652;21.272;2023-03-14T03:43:23;22.74;28.62
71514;DHT22;59335;46.652;21.272;2023-03-14T03:46:26;22.72;28.66
71514;DHT22;59335;46.652;21.272;2023-03-14T03:49:30;22.74;28.61
71514;DHT22;59335;46.652;21.272;2023-03-14T03:52:34;22.72;28.64
71514;DHT22;59335;46.652;21.272;2023-03-14T03:55:39;22.72;28.68
71514;DHT22;59335;46.652;21.272;2023-03-14T03:58:43;22.72;28.66
71514;DHT22;59335;46.652;21.272;2023-03-14T04:01:46;22.74;28.62
71514;DHT22;59335;46.652;21.272;2023-03-14T04:04:49;22.74;28.59
71514;DHT22;59335;46.652;21.272;2023-03-14T04:07:52;22.71;28.66
71514;DHT22;59335;46.652;21.272;2023-03-14T04:11:01;22.71;28.62
71514;DHT22;59335;46.652;21.272;2023-03-14T04:14:23;22.71;28.56
71514;DHT22;59335;46.652;21.272;2023-03-14T04:17:40;22.72;28.58
71514;DHT22;59335;46.652;21.272;2023-03-14T04:20:45;22.74;28.56
71514;DHT22;59335;46.652;21.272;2023-03-14T04:23:48;22.71;28.55
71514;DHT22;59335;46.652;21.272;2023-03-14T04:26:52;22.74;28.56
71514;DHT22;59335;46.652;21.272;2023-03-14T04:29:55;22.72;28.53
71514;DHT22;59335;46.652;21.272;2023-03-14T04:33:17;22.69;28.56
71514;DHT22;59335;46.652;21.272;2023-03-14T04:36:26;22.71;28.55
71514;DHT22;59335;46.652;21.272;2023-03-14T04:39:31;22.74;28.53
71514;DHT22;59335;46.652;21.272;2023-03-14T04:42:42;22.72;28.56
71514;DHT22;59335;46.652;21.272;2023-03-14T04:45:45;22.69;28.52
71514;DHT22;59335;46.652;21.272;2023-03-14T04:48:49;22.72;28.52
71514;DHT22;59335;46.652;21.272;2023-03-14T04:51:53;22.72;28.47
71514;DHT22;59335;46.652;21.272;2023-03-14T04:54:58;22.71;28.52
71514;DHT22;59335;46.652;21.272;2023-03-14T04:58:02;22.74;28.52
71514;DHT22;59335;46.652;21.272;2023-03-14T05:01:05;22.74;28.52
71514;DHT22;59335;46.652;21.272;2023-03-14T05:04:27;22.72;28.47
71514;DHT22;59335;46.652;21.272;2023-03-14T05:08:05;22.75;28.47
71514;DHT22;59335;46.652;21.272;2023-03-14T05:11:31;22.76;28.40
71514;DHT22;59335;46.652;21.272;2023-03-14T05:14:35;22.74;28.44
71514;DHT22;59335;46.652;21.272;2023-03-14T05:17:37;22.75;28.43
71514;DHT22;59335;46.652;21.272;2023-03-14T05:20:40;22.76;28.37
71514;DHT22;59335;46.652;21.272;2023-03-14T05:24:02;22.76;28.43
71514;DHT22;59335;46.652;21.272;2023-03-14T05:27:24;22.81;28.45
71514;DHT22;59335;46.652;21.272;2023-03-14T05:30:46;22.81;28.45
71514;DHT22;59335;46.652;21.272;2023-03-14T05:34:18;22.82;28.49
71514;DHT22;59335;46.652;21.272;2023-03-14T05:37:39;22.81;28.52
71514;DHT22;59335;46.652;21.272;2023-03-14T05:41:01;22.82;28.56
71514;DHT22;59335;46.652;21.272;2023-03-14T05:44:07;22.82;28.60
71514;DHT22;59335;46.652;21.272;2023-03-14T05:47:28;22.84;28.52
71514;DHT22;59335;46.652;21.272;2023-03-14T05:50:55;22.84;28.51
71514;DHT22;59335;46.652;21.272;2023-03-14T05:54:08;22.81;28.60
71514;DHT22;59335;46.652;21.272;2023-03-14T05:57:30;22.79;28.58
71514;DHT22;59335;46.652;21.272;2023-03-14T06:00:45;22.82;28.57
71514;DHT22;59335;46.652;21.272;2023-03-14T06:03:59;22.82;28.54
71514;DHT22;59335;46.652;21.272;2023-03-14T06:07:02;22.81;28.52
71514;DHT22;59335;46.652;21.272;2023-03-14T06:10:06;22.81;28.57
71514;DHT22;59335;46.652;21.272;2023-03-14T06:13:11;22.81;28.61
71514;DHT22;59335;46.652;21.272;2023-03-14T06:16:14;22.84;28.63
71514;DHT22;59335;46.652;21.272;2023-03-14T06:19:18;22.81;28.59
71514;DHT22;59335;46.652;21.272;2023-03-14T06:22:21;22.84;28.58
71514;DHT22;59335;46.652;21.272;2023-03-14T06:25:24;22.81;28.60
71514;DHT22;59335;46.652;21.272;2023-03-14T06:28:27;22.84;28.63
71514;DHT22;59335;46.652;21.272;2023-03-14T06:31:33;22.84;28.66
71514;DHT22;59335;46.652;21.272;2023-03-14T06:34:39;22.82;28.69
71514;DHT22;59335;46.652;21.272;2023-03-14T06:37:43;22.82;28.68
71514;DHT22;59335;46.652;21.272;2023-03-14T06:40:47;22.81;28.72
71514;DHT22;59335;46.652;21.272;2023-03-14T06:43:55;22.84;28.74
71514;DHT22;59335;46.652;21.272;2023-03-14T06:46:58;22.84;28.72
71514;DHT22;59335;46.652;21.272;2023-03-14T06:50:02;22.82;28.75
71514;DHT22;59335;46.652;21.272;2023-03-14T06:53:07;22.81;28.72
71514;DHT22;59335;46.652;21.272;2023-03-14T06:56:12;22.84;28.75
71514;DHT22;59335;46.652;21.272;2023-03-14T06:59:19;22.81;28.77
71514;DHT22;59335;46.652;21.272;2023-03-14T07:02:24;22.82;28.80
71514;DHT22;59335;46.652;21.272;2023-03-14T07:05:48;22.82;28.78
71514;DHT22;59335;46.652;21.272;2023-03-14T07:08:51;22.82;28.89
71514;DHT22;59335;46.652;21.272;2023-03-14T07:11:54;22.82;28.80
71514;DHT22;59335;46.652;21.272;2023-03-14T07:14:57;22.84;28.88
71514;DHT22;59335;46.652;21.272;2023-03-14T07:18:21;22.84;28.86
71514;DHT22;59335;46.652;21.272;2023-03-14T07:21:24;22.85;28.86
71514;DHT22;59335;46.652;21.272;2023-03-14T07:24:27;22.82;28.94
71514;DHT22;59335;46.652;21.272;2023-03-14T07:27:30;22.84;28.89
71514;DHT22;59335;46.652;21.272;2023-03-14T07:30:34;22.85;28.97
71514;DHT22;59335;46.652;21.272;2023-03-14T07:33:43;22.85;28.86
71514;DHT22;59335;46.652;21.272;2023-03-14T07:36:46;22.85;28.89
71514;DHT22;59335;46.652;21.272;2023-03-14T07:39:50;22.84;28.97
71514;DHT22;59335;46.652;21.272;2023-03-14T07:42:58;22.87;28.99
71514;DHT22;59335;46.652;21.272;2023-03-14T07:46:03;22.87;28.97
71514;DHT22;59335;46.652;21.272;2023-03-14T07:49:06;22.85;28.98
71514;DHT22;59335;46.652;21.272;2023-03-14T07:52:09;22.85;28.91
71514;DHT22;59335;46.652;21.272;2023-03-14T07:55:12;22.88;28.92
71514;DHT22;59335;46.652;21.272;2023-03-14T07:58:15;22.85;28.86
71514;DHT22;59335;46.652;21.272;2023-03-14T08:01:18;22.87;28.92
71514;DHT22;59335;46.652;21.272;2023-03-14T08:04:21;22.87;28.94
71514;DHT22;59335;46.652;21.272;2023-03-14T08:07:24;22.85;28.91
71514;DHT22;59335;46.652;21.272;2023-03-14T08:10:30;22.88;28.99
71514;DHT22;59335;46.652;21.272;2023-03-14T08:13:32;22.88;29.03
71514;DHT22;59335;46.652;21.272;2023-03-14T08:16:35;22.91;28.99
71514;DHT22;59335;46.652;21.272;2023-03-14T08:19:38;22.90;28.97
71514;DHT22;59335;46.652;21.272;2023-03-14T08:22:41;22.91;29.00
71514;DHT22;59335;46.652;21.272;2023-03-14T08:25:44;22.88;29.06
71514;DHT22;59335;46.652;21.272;2023-03-14T08:28:47;22.90;29.09
71514;DHT22;59335;46.652;21.272;2023-03-14T08:31:50;22.92;29.10
71514;DHT22;59335;46.652;21.272;2023-03-14T08:34:53;22.92;29.15
71514;DHT22;59335;46.652;21.272;2023-03-14T08:37:55;22.91;29.18
71514;DHT22;59335;46.652;21.272;2023-03-14T08:40:59;22.92;29.08
71514;DHT22;59335;46.652;21.272;2023-03-14T08:44:02;22.94;29.16
71514;DHT22;59335;46.652;21.272;2023-03-14T08:47:05;22.95;29.22
71514;DHT22;59335;46.652;21.272;2023-03-14T08:50:09;22.94;29.11
71514;DHT22;59335;46.652;21.272;2023-03-14T08:53:17;22.94;29.19
71514;DHT22;59335;46.652;21.272;2023-03-14T08:56:21;22.95;29.20
71514;DHT22;59335;46.652;21.272;2023-03-14T08:59:27;22.98;29.22
71514;DHT22;59335;46.652;21.272;2023-03-14T09:02:31;22.99;29.17
71514;DHT22;59335;46.652;21.272;2023-03-14T09:05:34;23.02;29.19
71514;DHT22;59335;46.652;21.272;2023-03-14T09:08:37;23.03;29.13
71514;DHT22;59335;46.652;21.272;2023-03-14T09:11:41;23.06;29.10
71514;DHT22;59335;46.652;21.272;2023-03-14T09:14:46;23.08;29.14
71514;DHT22;59335;46.652;21.272;2023-03-14T09:17:50;23.09;29.11
71514;DHT22;59335;46.652;21.272;2023-03-14T09:20:52;23.15;29.06
71514;DHT22;59335;46.652;21.272;2023-03-14T09:23:55;23.15;29.10
71514;DHT22;59335;46.652;21.272;2023-03-14T09:26:59;23.16;29.02
71514;DHT22;59335;46.652;21.272;2023-03-14T09:30:03;23.15;29.01
71514;DHT22;59335;46.652;21.272;2023-03-14T09:33:09;23.18;29.01
71514;DHT22;59335;46.652;21.272;2023-03-14T09:36:12;23.19;29.01
71514;DHT22;59335;46.652;21.272;2023-03-14T09:39:14;23.23;28.98
71514;DHT22;59335;46.652;21.272;2023-03-14T09:42:23;23.19;29.07
71514;DHT22;59335;46.652;21.272;2023-03-14T09:45:36;23.22;29.01
71514;DHT22;59335;46.652;21.272;2023-03-14T09:48:39;23.23;29.06
71514;DHT22;59335;46.652;21.272;2023-03-14T09:51:47;23.23;29.07
71514;DHT22;59335;46.652;21.272;2023-03-14T09:55:11;23.24;29.03
71514;DHT22;59335;46.652;21.272;2023-03-14T09:58:21;23.24;29.06
71514;DHT22;59335;46.652;21.272;2023-03-14T10:01:26;23.26;29.07
71514;DHT22;59335;46.652;21.272;2023-03-14T10:04:33;23.26;29.07
71514;DHT22;59335;46.652;21.272;2023-03-14T10:07:36;23.29;29.11
71514;DHT22;59335;46.652;21.272;2023-03-14T10:10:42;23.26;29.14
71514;DHT22;59335;46.652;21.272;2023-03-14T10:14:08;23.24;29.09
71514;DHT22;59335;46.652;21.272;2023-03-14T10:17:13;23.24;29.15
71514;DHT22;59335;46.652;21.272;2023-03-14T10:20:34;23.27;29.18
71514;DHT22;59335;46.652;21.272;2023-03-14T10:23:37;23.22;29.17
71514;DHT22;59335;46.652;21.272;2023-03-14T10:26:40;23.23;29.21
71514;DHT22;59335;46.652;21.272;2023-03-14T10:30:06;23.23;29.21
71514;DHT22;59335;46.652;21.272;2023-03-14T10:33:21;23.23;29.17
71514;DHT22;59335;46.652;21.272;2023-03-14T10:36:27;23.20;29.26
71514;DHT22;59335;46.652;21.272;2023-03-14T10:42:42;23.22;29.27
71514;DHT22;59335;46.652;21.272;2023-03-14T10:45:58;23.22;29.30
71514;DHT22;59335;46.652;21.272;2023-03-14T10:49:05;23.23;29.30
71514;DHT22;59335;46.652;21.272;2023-03-14T10:52:22;23.20;29.37
71514;DHT22;59335;46.652;21.272;2023-03-14T10:55:46;23.20;29.41
71514;DHT22;59335;46.652;21.272;2023-03-14T10:58:51;23.20;29.38
71514;DHT22;59335;46.652;21.272;2023-03-14T11:05:36;23.20;29.39
71514;DHT22;59335;46.652;21.272;2023-03-14T11:09:02;23.19;29.40
71514;DHT22;59335;46.652;21.272;2023-03-14T11:15:41;23.18;29.48
71514;DHT22;59335;46.652;21.272;2023-03-14T11:18:53;23.19;29.46
71514;DHT22;59335;46.652;21.272;2023-03-14T11:25:52;23.16;29.49
71514;DHT22;59335;46.652;21.272;2023-03-14T11:29:08;23.18;29.49
71514;DHT22;59335;46.652;21.272;2023-03-14T11:32:22;23.18;29.55
71514;DHT22;59335;46.652;21.272;2023-03-14T11:39:10;23.18;29.52
71514;DHT22;59335;46.652;21.272;2023-03-14T11:42:16;23.18;29.55
71514;DHT22;59335;46.652;21.272;2023-03-14T11:45:34;23.16;29.65
71514;DHT22;59335;46.652;21.272;2023-03-14T11:48:59;23.16;29.59
71514;DHT22;59335;46.652;21.272;2023-03-14T11:52:09;23.16;29.61
71514;DHT22;59335;46.652;21.272;2023-03-14T11:55:22;23.18;29.63
71514;DHT22;59335;46.652;21.272;2023-03-14T11:58:33;23.18;29.65
71514;DHT22;59335;46.652;21.272;2023-03-14T12:12:03;23.18;29.71
71514;DHT22;59335;46.652;21.272;2023-03-14T12:15:18;23.16;29.69
71514;DHT22;59335;46.652;21.272;2023-03-14T12:18:28;23.16;29.77
71514;DHT22;59335;46.652;21.272;2023-03-14T12:21:51;23.16;29.69
71514;DHT22;59335;46.652;21.272;2023-03-14T12:28:31;23.18;29.76
71514;DHT22;59335;46.652;21.272;2023-03-14T12:31:44;23.16;29.81
71514;DHT22;59335;46.652;21.272;2023-03-14T12:34:48;23.15;29.75
71514;DHT22;59335;46.652;21.272;2023-03-14T12:37:52;23.15;29.83
71514;DHT22;59335;46.652;21.272;2023-03-14T12:51:12;23.18;29.77
71514;DHT22;59335;46.652;21.272;2023-03-14T12:54:29;23.16;29.78
71514;DHT22;59335;46.652;21.272;2023-03-14T13:01:16;23.16;29.81
71514;DHT22;59335;46.652;21.272;2023-03-14T13:04:27;23.19;29.87
71514;DHT22;59335;46.652;21.272;2023-03-14T13:08:05;23.19;29.84
71514;DHT22;59335;46.652;21.272;2023-03-14T13:11:15;23.20;29.89
71514;DHT22;59335;46.652;21.272;2023-03-14T13:14:19;23.18;29.86
71514;DHT22;59335;46.652;21.272;2023-03-14T13:17:33;23.18;29.87
71514;DHT22;59335;46.652;21.272;2023-03-14T13:21:20;23.19;29.86
71514;DHT22;59335;46.652;21.272;2023-03-14T13:24:37;23.19;29.91
71514;DHT22;59335;46.652;21.272;2023-03-14T13:27:40;23.22;29.89
71514;DHT22;59335;46.652;21.272;2023-03-14T13:31:02;23.22;29.88
71514;DHT22;59335;46.652;21.272;2023-03-14T13:34:09;23.20;29.91
71514;DHT22;59335;46.652;21.272;2023-03-14T13:37:22;23.22;29.91
71514;DHT22;59335;46.652;21.272;2023-03-14T13:40:35;23.23;29.89
71514;DHT22;59335;46.652;21.272;2023-03-14T13:43:43;23.20;29.91
71514;DHT22;59335;46.652;21.272;2023-03-14T13:46:46;23.22;29.97
71514;DHT22;59335;46.652;21.272;2023-03-14T13:49:49;23.20;29.92
71514;DHT22;59335;46.652;21.272;2023-03-14T13:52:56;23.20;29.88
71514;DHT22;59335;46.652;21.272;2023-03-14T13:56:03;23.20;29.91
71514;DHT22;59335;46.652;21.272;2023-03-14T13:59:34;23.20;29.95
71514;DHT22;59335;46.652;21.272;2023-03-14T14:02:38;23.20;29.91
71514;DHT22;59335;46.652;21.272;2023-03-14T14:05:44;23.18;29.98
71514;DHT22;59335;46.652;21.272;2023-03-14T14:08:47;23.19;29.92
71514;DHT22;59335;46.652;21.272;2023-03-14T14:11:58;23.20;30.01
71514;DHT22;59335;46.652;21.272;2023-03-14T14:18:25;23.18;30.01
71514;DHT22;59335;46.652;21.272;2023-03-14T14:21:29;23.20;29.99
71514;DHT22;59335;46.652;21.272;2023-03-14T14:24:34;23.16;30.09
71514;DHT22;59335;46.652;21.272;2023-03-14T14:27:42;23.18;30.05
71514;DHT22;59335;46.652;21.272;2023-03-14T14:30:45;23.18;30.01
71514;DHT22;59335;46.652;21.272;2023-03-14T14:34:02;23.18;30.10
71514;DHT22;59335;46.652;21.272;2023-03-14T14:37:04;23.15;30.13
71514;DHT22;59335;46.652;21.272;2023-03-14T14:40:13;23.18;30.13
71514;DHT22;59335;46.652;21.272;2023-03-14T14:43:30;23.16;30.14
71514;DHT22;59335;46.652;21.272;2023-03-14T14:46:36;23.16;30.10
71514;DHT22;59335;46.652;21.272;2023-03-14T14:49:40;23.18;30.14
71514;DHT22;59335;46.652;21.272;2023-03-14T14:52:44;23.16;30.15
71514;DHT22;59335;46.652;21.272;2023-03-14T14:55:53;23.16;30.14
71514;DHT22;59335;46.652;21.272;2023-03-14T14:59:01;23.16;30.14
71514;DHT22;59335;46.652;21.272;2023-03-14T15:05:28;23.13;30.13
71514;DHT22;59335;46.652;21.272;2023-03-14T15:08:33;23.15;30.16
71514;DHT22;59335;46.652;21.272;2023-03-14T15:11:35;23.15;30.16
71514;DHT22;59335;46.652;21.272;2023-03-14T15:14:38;23.13;30.22
71514;DHT22;59335;46.652;21.272;2023-03-14T15:17:42;23.12;30.19
71514;DHT22;59335;46.652;21.272;2023-03-14T15:20:45;23.12;30.23
71514;DHT22;59335;46.652;21.272;2023-03-14T15:23:47;23.12;30.20
71514;DHT22;59335;46.652;21.272;2023-03-14T15:26:50;23.15;30.23
71514;DHT22;59335;46.652;21.272;2023-03-14T15:29:53;23.13;30.25
71514;DHT22;59335;46.652;21.272;2023-03-14T15:32:56;23.12;30.33
71514;DHT22;59335;46.652;21.272;2023-03-14T15:35:58;23.12;30.31
71514;DHT22;59335;46.652;21.272;2023-03-14T15:39:05;23.13;30.31
71514;DHT22;59335;46.652;21.272;2023-03-14T15:42:09;23.12;30.34
71514;DHT22;59335;46.652;21.272;2023-03-14T15:45:11;23.11;30.36
71514;DHT22;59335;46.652;21.272;2023-03-14T15:48:19;23.11;30.32
71514;DHT22;59335;46.652;21.272;2023-03-14T15:51:22;23.11;30.35
71514;DHT22;59335;46.652;21.272;2023-03-14T15:54:26;23.08;30.39
71514;DHT22;59335;46.652;21.272;2023-03-14T15:57:30;23.08;30.37
71514;DHT22;59335;46.652;21.272;2023-03-14T16:00:33;23.09;30.35
71514;DHT22;59335;46.652;21.272;2023-03-14T16:03:37;23.11;30.41
71514;DHT22;59335;46.652;21.272;2023-03-14T16:06:40;23.08;30.40
71514;DHT22;59335;46.652;21.272;2023-03-14T16:09:43;23.06;30.40
71514;DHT22;59335;46.652;21.272;2023-03-14T16:12:46;23.08;30.40
71514;DHT22;59335;46.652;21.272;2023-03-14T16:15:59;23.08;30.43
71514;DHT22;59335;46.652;21.272;2023-03-14T16:19:02;23.08;30.43
71514;DHT22;59335;46.652;21.272;2023-03-14T16:22:07;23.06;30.52
71514;DHT22;59335;46.652;21.272;2023-03-14T16:25:10;23.06;30.46
71514;DHT22;59335;46.652;21.272;2023-03-14T16:28:13;23.05;30.44
71514;DHT22;59335;46.652;21.272;2023-03-14T16:31:17;23.06;30.49
71514;DHT22;59335;46.652;21.272;2023-03-14T16:34:23;23.08;30.46
71514;DHT22;59335;46.652;21.272;2023-03-14T16:37:26;23.05;30.50
71514;DHT22;59335;46.652;21.272;2023-03-14T16:40:29;23.05;30.55
71514;DHT22;59335;46.652;21.272;2023-03-14T16:43:33;23.06;30.53
71514;DHT22;59335;46.652;21.272;2023-03-14T16:46:38;23.05;30.58
71514;DHT22;59335;46.652;21.272;2023-03-14T16:49:41;23.03;30.52
71514;DHT22;59335;46.652;21.272;2023-03-14T16:52:44;23.05;30.58
71514;DHT22;59335;46.652;21.272;2023-03-14T16:55:50;23.06;30.52
71514;DHT22;59335;46.652;21.272;2023-03-14T16:58:54;23.02;30.58
71514;DHT22;59335;46.652;21.272;2023-03-14T17:01:57;23.02;30.59
71514;DHT22;59335;46.652;21.272;2023-03-14T17:05:01;23.02;30.62
71514;DHT22;59335;46.652;21.272;2023-03-14T17:08:04;23.03;30.58
71514;DHT22;59335;46.652;21.272;2023-03-14T17:11:08;23.03;30.59
71514;DHT22;59335;46.652;21.272;2023-03-14T17:14:11;23.03;30.67
71514;DHT22;59335;46.652;21.272;2023-03-14T17:17:15;23.01;30.62
71514;DHT22;59335;46.652;21.272;2023-03-14T17:20:20;23.02;30.62
71514;DHT22;59335;46.652;21.272;2023-03-14T17:23:24;23.02;30.59
71514;DHT22;59335;46.652;21.272;2023-03-14T17:26:28;23.02;30.55
71514;DHT22;59335;46.652;21.272;2023-03-14T17:29:35;23.01;30.57
71514;DHT22;59335;46.652;21.272;2023-03-14T17:32:38;23.02;30.57
71514;DHT22;59335;46.652;21.272;2023-03-14T17:35:45;23.02;30.62
71514;DHT22;59335;46.652;21.272;2023-03-14T17:38:48;23.01;30.63
71514;DHT22;59335;46.652;21.272;2023-03-14T17:41:51;22.98;30.65
71514;DHT22;59335;46.652;21.272;2023-03-14T17:44:56;22.96;30.63
71514;DHT22;59335;46.652;21.272;2023-03-14T17:48:01;23.01;30.61
71514;DHT22;59335;46.652;21.272;2023-03-14T17:51:06;22.99;30.62
71514;DHT22;59335;46.652;21.272;2023-03-14T17:54:09;22.99;30.62
71514;DHT22;59335;46.652;21.272;2023-03-14T17:57:13;22.99;30.65
71514;DHT22;59335;46.652;21.272;2023-03-14T18:00:17;22.99;30.63
71514;DHT22;59335;46.652;21.272;2023-03-14T18:03:22;22.99;30.65
71514;DHT22;59335;46.652;21.272;2023-03-14T18:06:27;22.99;30.62
71514;DHT22;59335;46.652;21.272;2023-03-14T18:09:32;22.99;30.57
71514;DHT22;59335;46.652;21.272;2023-03-14T18:12:36;22.98;30.63
71514;DHT22;59335;46.652;21.272;2023-03-14T18:15:40;22.98;30.62
71514;DHT22;59335;46.652;21.272;2023-03-14T18:18:45;22.99;30.57
71514;DHT22;59335;46.652;21.272;2023-03-14T18:21:50;22.96;30.63
71514;DHT22;59335;46.652;21.272;2023-03-14T18:24:54;22.98;30.62
71514;DHT22;59335;46.652;21.272;2023-03-14T18:27:58;22.95;30.65
71514;DHT22;59335;46.652;21.272;2023-03-14T18:31:07;22.96;30.62
71514;DHT22;59335;46.652;21.272;2023-03-14T18:34:15;22.96;30.62
71514;DHT22;59335;46.652;21.272;2023-03-14T18:37:20;22.99;30.56
71514;DHT22;59335;46.652;21.272;2023-03-14T18:40:25;22.96;30.58
71514;DHT22;59335;46.652;21.272;2023-03-14T18:43:33;22.95;30.57
71514;DHT22;59335;46.652;21.272;2023-03-14T18:46:38;22.95;30.56
71514;DHT22;59335;46.652;21.272;2023-03-14T18:49:43;22.96;30.52
71514;DHT22;59335;46.652;21.272;2023-03-14T18:52:48;22.96;30.48
71514;DHT22;59335;46.652;21.272;2023-03-14T18:55:53;22.95;30.48
71514;DHT22;59335;46.652;21.272;2023-03-14T18:59:00;22.95;30.49
71514;DHT22;59335;46.652;21.272;2023-03-14T19:02:08;22.95;30.46
71514;DHT22;59335;46.652;21.272;2023-03-14T19:05:15;22.94;30.49
71514;DHT22;59335;46.652;21.272;2023-03-14T19:08:19;22.95;30.51
71514;DHT22;59335;46.652;21.272;2023-03-14T19:11:25;22.98;30.45
71514;DHT22;59335;46.652;21.272;2023-03-14T19:14:30;22.95;30.48
71514;DHT22;59335;46.652;21.272;2023-03-14T19:17:34;22.95;30.46
71514;DHT22;59335;46.652;21.272;2023-03-14T19:20:40;22.94;30.42
71514;DHT22;59335;46.652;21.272;2023-03-14T19:23:44;22.94;30.40
71514;DHT22;59335;46.652;21.272;2023-03-14T19:26:51;22.92;30.42
71514;DHT22;59335;46.652;21.272;2023-03-14T19:29:58;22.94;30.40
71514;DHT22;59335;46.652;21.272;2023-03-14T19:33:03;22.94;30.43
71514;DHT22;59335;46.652;21.272;2023-03-14T19:36:17;22.96;30.40
71514;DHT22;59335;46.652;21.272;2023-03-14T19:39:22;22.91;30.40
71514;DHT22;59335;46.652;21.272;2023-03-14T19:42:27;22.94;30.40
71514;DHT22;59335;46.652;21.272;2023-03-14T19:45:32;22.91;30.37
71514;DHT22;59335;46.652;21.272;2023-03-14T19:48:39;22.95;30.39
71514;DHT22;59335;46.652;21.272;2023-03-14T19:51:43;22.95;30.39
71514;DHT22;59335;46.652;21.272;2023-03-14T19:54:47;22.91;30.37
71514;DHT22;59335;46.652;21.272;2023-03-14T19:57:52;22.92;30.39
71514;DHT22;59335;46.652;21.272;2023-03-14T20:00:57;22.92;30.34
71514;DHT22;59335;46.652;21.272;2023-03-14T20:04:03;22.91;30.35
71514;DHT22;59335;46.652;21.272;2023-03-14T20:07:07;22.92;30.39
71514;DHT22;59335;46.652;21.272;2023-03-14T20:10:15;22.94;30.33
71514;DHT22;59335;46.652;21.272;2023-03-14T20:13:22;22.92;30.39
71514;DHT22;59335;46.652;21.272;2023-03-14T20:16:27;22.91;30.41